Atlantic Aquarius — VRDX6 — position and weather

sailwx.info

Track history (hours):
 
Tides and Currents Weather Stations Pressure Air Temp Water Temp Dewpoint Dewpoint Depression Visibility Wind Speed Wind Dir Waves Ship Positions

Atlantic Aquarius

Last reported at 2014-Jun-16 22:12 UTC. Time now 2014-Aug-02 08:37 UTC.
Position N 27°23' W 115°59'.
Warning: this ship's position is 46 days out of date.

Length 183 m; draft 8 m.

Type: Tanker. MMSI: 477071400.

Date/timePositionNaut miles runAvg speedWind from/ knotsBaromVisibWave heightAir tempDewpointWater temp
2014-Jun-16 22:12N 27°23' W 115°59'18312.2
2014-Jun-16 07:11N 30°08' W 117°28'913.1
2014-Jun-16 06:29N 30°17' W 117°32'1213.2
2014-Jun-16 05:33N 30°28' W 117°37'2612.0
2014-Jun-16 03:22N 30°53' W 117°48'1211.7
2014-Jun-16 02:19N 31°05' W 117°52'911.8
2014-Jun-16 01:34N 31°12' W 117°57'1211.7
2014-Jun-16 00:33N 31°23' W 118°02'1211.8
2014-Jun-15 23:33N 31°34' W 118°07'1211.6
2014-Jun-15 22:33N 31°45' W 118°13'1111.5
2014-Jun-15 21:34N 31°55' W 118°18'1111.1
2014-Jun-15 20:34N 32°06' W 118°19'1111.4
2014-Jun-15 19:34N 32°18' W 118°17'1211.7
2014-Jun-15 18:34N 32°29' W 118°15'1111.3
2014-Jun-15 17:34N 32°41' W 118°13'1111.4
2014-Jun-15 16:33N 32°52' W 118°11'1111.4
2014-Jun-15 15:33N 33°03' W 118°09'1111.5
2014-Jun-15 14:34N 33°14' W 118°07'1111.1
2014-Jun-15 13:33N 33°25' W 118°09'1211.2
2014-Jun-15 12:29N 33°37' W 118°13'8 7.9
2014-Jun-15 11:31N 33°44' W 118°10'0 0.1
2014-Jun-15 09:31N 33°44' W 118°10'0 0.0
2014-Jun-15 08:31N 33°44' W 118°10'0 0.0
2014-Jun-15 07:31N 33°44' W 118°10'0 0.0
2014-Jun-15 06:19N 33°44' W 118°10'0 0.0
2014-Jun-15 05:28N 33°44' W 118°10'0 0.0
2014-Jun-15 04:10N 33°44' W 118°10'0 0.0
2014-Jun-15 03:31N 33°44' W 118°10'0 0.0
2014-Jun-15 02:31N 33°44' W 118°10'0 0.0
2014-Jun-15 01:07N 33°44' W 118°10'0 0.0
2014-Jun-15 00:28N 33°44' W 118°10'0 0.1
2014-Jun-14 23:31N 33°44' W 118°10'0 0.1
2014-Jun-14 22:10N 33°44' W 118°10'1 2.3
2014-Jun-14 21:33N 33°44' W 118°12'3 0.1
2014-Jun-14 02:30N 33°47' W 118°13'0 0.2
2014-Jun-14 01:33N 33°46' W 118°13'5 4.8
2014-Jun-14 00:33N 33°42' W 118°11'7 6.8
2014-Jun-13 23:33N 33°36' W 118°15'9 7.8
2014-Jun-13 22:26N 33°36' W 118°25'7 7.8
2014-Jun-13 21:33N 33°36' W 118°33'1311.8
2014-Jun-13 20:28N 33°38' W 118°49'1111.7
2014-Jun-13 19:33N 33°39' W 119°02'1312.6
2014-Jun-13 18:33N 33°38' W 119°17'1211.9
2014-Jun-13 17:31N 33°37' W 119°32'17 8.5
2014-Jun-13 15:33N 33°36' W 119°52'1212.0
2014-Jun-13 14:33N 33°36' W 120°06'1312.7
2014-Jun-13 13:33N 33°36' W 120°21'1313.2
2014-Jun-13 12:33N 33°36' W 120°37'19911.7
2014-Jun-12 19:29N 36°12' W 123°08'1613.8
2014-Jun-12 18:21N 36°27' W 123°14'3913.5
2014-Jun-12 15:29N 37°03' W 123°32'1313.4
2014-Jun-12 14:31N 37°15' W 123°38'1312.4
2014-Jun-12 13:30N 37°23' W 123°25'1413.4
2014-Jun-12 12:28N 37°30' W 123°11'1213.1
2014-Jun-12 11:33N 37°37' W 122°58'1313.0
2014-Jun-12 10:33N 37°44' W 122°45'1111.3
2014-Jun-12 09:33N 37°48' W 122°31'7 6.5
2014-Jun-12 08:33N 37°53' W 122°26'8 8.3
2014-Jun-12 07:33N 38°01' W 122°23'7 7.3
2014-Jun-12 06:33N 38°04' W 122°14'  
2014-Jun-09 15:33N 38°03' W 122°05'3 2.7
2014-Jun-09 14:33N 38°02' W 122°09'5 5.4
2014-Jun-09 13:33N 38°04' W 122°15'1111.0
2014-Jun-09 12:33N 37°58' W 122°27'1212.0
2014-Jun-09 11:34N 37°46' W 122°22'0 0.5
2014-Jun-09 10:33N 37°46' W 122°21'0 0.0
2014-Jun-09 09:33N 37°46' W 122°21'0 0.0
2014-Jun-09 08:33N 37°46' W 122°21'0 0.0
2014-Jun-09 07:33N 37°46' W 122°21'0 0.1
2014-Jun-09 06:33N 37°46' W 122°21'0 0.1
2014-Jun-09 05:33N 37°46' W 122°21'0 0.1
2014-Jun-09 04:33N 37°46' W 122°21'0 0.1
2014-Jun-09 03:33N 37°46' W 122°21'0 0.0
2014-Jun-09 02:33N 37°46' W 122°21'0 0.0
2014-Jun-09 01:33N 37°46' W 122°21'0 0.1
2014-Jun-09 00:33N 37°46' W 122°21'0 0.0
2014-Jun-08 23:33N 37°46' W 122°21'0 0.1
2014-Jun-08 22:33N 37°46' W 122°21'0 0.2
2014-Jun-08 21:33N 37°46' W 122°21'0 0.0
2014-Jun-08 20:33N 37°46' W 122°21'0 0.0
2014-Jun-08 19:33N 37°46' W 122°21'0 0.0
2014-Jun-08 18:33N 37°46' W 122°21'0 0.1
2014-Jun-08 17:33N 37°46' W 122°21'0 0.2
2014-Jun-08 16:33N 37°46' W 122°21'0 0.0
2014-Jun-08 15:33N 37°46' W 122°21'0 0.0
2014-Jun-08 14:33N 37°46' W 122°21'0 0.0
2014-Jun-08 13:33N 37°46' W 122°21'0 0.0
2014-Jun-08 12:33N 37°46' W 122°21'0 0.1
2014-Jun-08 11:33N 37°46' W 122°21'0 0.1
2014-Jun-08 10:33N 37°46' W 122°21'0 0.0
2014-Jun-08 09:33N 37°46' W 122°21'0 0.0
2014-Jun-08 08:33N 37°46' W 122°21'0 0.0
2014-Jun-08 07:33N 37°46' W 122°21'0 0.0
2014-Jun-08 06:33N 37°46' W 122°21'0 0.0
2014-Jun-08 05:33N 37°46' W 122°21'0 0.1
2014-Jun-08 04:33N 37°46' W 122°21'0 0.1
2014-Jun-08 03:33N 37°46' W 122°21'0 0.1
2014-Jun-08 02:33N 37°46' W 122°21'2 1.8
2014-Jun-08 01:33N 37°47' W 122°23'1110.9
2014-Jun-08 00:33N 37°46' W 122°36'5 4.5
2014-Jun-07 23:33N 37°48' W 122°41'1 1.1
2014-Jun-07 22:33N 37°47' W 122°41'7 7.0
2014-Jun-07 21:33N 37°40' W 122°39'8 7.6
2014-Jun-07 20:33N 37°33' W 122°40'6 6.0
2014-Jun-07 19:33N 37°27' W 122°40'10 9.9
2014-Jun-07 18:33N 37°17' W 122°40'11 9.5
2014-Jun-07 17:20N 37°05' W 122°40'810.3
2014-Jun-07 16:33N 36°57' W 122°40'1111.1
2014-Jun-07 15:33N 36°46' W 122°40'3612.0
2014-Jun-07 12:33N 36°10' W 122°40'1511.1
2014-Jun-07 11:10N 35°55' W 122°40'1910.6
2014-Jun-07 09:23N 35°36' W 122°40'1111.1
2014-Jun-07 08:24N 35°25' W 122°40'1011.0
2014-Jun-07 07:29N 35°15' W 122°40'9 6.5
2014-Jun-07 06:05N 35°06' W 122°40'2 3.1
2014-Jun-07 05:33N 35°04' W 122°40'1110.6
2014-Jun-07 04:33N 34°53' W 122°40'5310.3
2014-Jun-06 23:24N 34°00' W 122°40'1010.1
2014-Jun-06 22:23N 33°50' W 122°40'  
Track history (hours):
 
Tides and Currents Weather Stations Pressure Air Temp Water Temp Dewpoint Dewpoint Depression Visibility Wind Speed Wind Dir Waves Ship Positions

Atlantic Aquarius

Last reported at 2014-Jun-16 22:12 UTC. Time now 2014-Aug-02 08:37 UTC.
Position N 27°23' W 115°59'.
Warning: this ship's position is 46 days out of date.

Length 183 m; draft 8 m.

Type: Tanker. MMSI: 477071400.

Date/timePositionNaut miles runAvg speedWind from/ knotsBaromVisibWave heightAir tempDewpointWater temp
2014-Jun-16 22:12N 27°23' W 115°59'18312.2
2014-Jun-16 07:11N 30°08' W 117°28'913.1
2014-Jun-16 06:29N 30°17' W 117°32'1213.2
2014-Jun-16 05:33N 30°28' W 117°37'2612.0
2014-Jun-16 03:22N 30°53' W 117°48'1211.7
2014-Jun-16 02:19N 31°05' W 117°52'911.8
2014-Jun-16 01:34N 31°12' W 117°57'1211.7
2014-Jun-16 00:33N 31°23' W 118°02'1211.8
2014-Jun-15 23:33N 31°34' W 118°07'1211.6
2014-Jun-15 22:33N 31°45' W 118°13'1111.5
2014-Jun-15 21:34N 31°55' W 118°18'1111.1
2014-Jun-15 20:34N 32°06' W 118°19'1111.4
2014-Jun-15 19:34N 32°18' W 118°17'1211.7
2014-Jun-15 18:34N 32°29' W 118°15'1111.3
2014-Jun-15 17:34N 32°41' W 118°13'1111.4
2014-Jun-15 16:33N 32°52' W 118°11'1111.4
2014-Jun-15 15:33N 33°03' W 118°09'1111.5
2014-Jun-15 14:34N 33°14' W 118°07'1111.1
2014-Jun-15 13:33N 33°25' W 118°09'1211.2
2014-Jun-15 12:29N 33°37' W 118°13'8 7.9
2014-Jun-15 11:31N 33°44' W 118°10'0 0.1
2014-Jun-15 09:31N 33°44' W 118°10'0 0.0
2014-Jun-15 08:31N 33°44' W 118°10'0 0.0
2014-Jun-15 07:31N 33°44' W 118°10'0 0.0
2014-Jun-15 06:19N 33°44' W 118°10'0 0.0
2014-Jun-15 05:28N 33°44' W 118°10'0 0.0
2014-Jun-15 04:10N 33°44' W 118°10'0 0.0
2014-Jun-15 03:31N 33°44' W 118°10'0 0.0
2014-Jun-15 02:31N 33°44' W 118°10'0 0.0
2014-Jun-15 01:07N 33°44' W 118°10'0 0.0
2014-Jun-15 00:28N 33°44' W 118°10'0 0.1
2014-Jun-14 23:31N 33°44' W 118°10'0 0.1
2014-Jun-14 22:10N 33°44' W 118°10'1 2.3
2014-Jun-14 21:33N 33°44' W 118°12'3 0.1
2014-Jun-14 02:30N 33°47' W 118°13'0 0.2
2014-Jun-14 01:33N 33°46' W 118°13'5 4.8
2014-Jun-14 00:33N 33°42' W 118°11'7 6.8
2014-Jun-13 23:33N 33°36' W 118°15'9 7.8
2014-Jun-13 22:26N 33°36' W 118°25'7 7.8
2014-Jun-13 21:33N 33°36' W 118°33'1311.8
2014-Jun-13 20:28N 33°38' W 118°49'1111.7
2014-Jun-13 19:33N 33°39' W 119°02'1312.6
2014-Jun-13 18:33N 33°38' W 119°17'1211.9
2014-Jun-13 17:31N 33°37' W 119°32'17 8.5
2014-Jun-13 15:33N 33°36' W 119°52'1212.0
2014-Jun-13 14:33N 33°36' W 120°06'1312.7
2014-Jun-13 13:33N 33°36' W 120°21'1313.2
2014-Jun-13 12:33N 33°36' W 120°37'19911.7
2014-Jun-12 19:29N 36°12' W 123°08'1613.8
2014-Jun-12 18:21N 36°27' W 123°14'3913.5
2014-Jun-12 15:29N 37°03' W 123°32'1313.4
2014-Jun-12 14:31N 37°15' W 123°38'1312.4
2014-Jun-12 13:30N 37°23' W 123°25'1413.4
2014-Jun-12 12:28N 37°30' W 123°11'1213.1
2014-Jun-12 11:33N 37°37' W 122°58'1313.0
2014-Jun-12 10:33N 37°44' W 122°45'1111.3
2014-Jun-12 09:33N 37°48' W 122°31'7 6.5
2014-Jun-12 08:33N 37°53' W 122°26'8 8.3
2014-Jun-12 07:33N 38°01' W 122°23'7 7.3
2014-Jun-12 06:33N 38°04' W 122°14'  
2014-Jun-09 15:33N 38°03' W 122°05'3 2.7
2014-Jun-09 14:33N 38°02' W 122°09'5 5.4
2014-Jun-09 13:33N 38°04' W 122°15'1111.0
2014-Jun-09 12:33N 37°58' W 122°27'1212.0
2014-Jun-09 11:34N 37°46' W 122°22'0 0.5
2014-Jun-09 10:33N 37°46' W 122°21'0 0.0
2014-Jun-09 09:33N 37°46' W 122°21'0 0.0
2014-Jun-09 08:33N 37°46' W 122°21'0 0.0
2014-Jun-09 07:33N 37°46' W 122°21'0 0.1
2014-Jun-09 06:33N 37°46' W 122°21'0 0.1
2014-Jun-09 05:33N 37°46' W 122°21'0 0.1
2014-Jun-09 04:33N 37°46' W 122°21'0 0.1
2014-Jun-09 03:33N 37°46' W 122°21'0 0.0
2014-Jun-09 02:33N 37°46' W 122°21'0 0.0
2014-Jun-09 01:33N 37°46' W 122°21'0 0.1
2014-Jun-09 00:33N 37°46' W 122°21'0 0.0
2014-Jun-08 23:33N 37°46' W 122°21'0 0.1
2014-Jun-08 22:33N 37°46' W 122°21'0 0.2
2014-Jun-08 21:33N 37°46' W 122°21'0 0.0
2014-Jun-08 20:33N 37°46' W 122°21'0 0.0
2014-Jun-08 19:33N 37°46' W 122°21'0 0.0
2014-Jun-08 18:33N 37°46' W 122°21'0 0.1
2014-Jun-08 17:33N 37°46' W 122°21'0 0.2
2014-Jun-08 16:33N 37°46' W 122°21'0 0.0
2014-Jun-08 15:33N 37°46' W 122°21'0 0.0
2014-Jun-08 14:33N 37°46' W 122°21'0 0.0
2014-Jun-08 13:33N 37°46' W 122°21'0 0.0
2014-Jun-08 12:33N 37°46' W 122°21'0 0.1
2014-Jun-08 11:33N 37°46' W 122°21'0 0.1
2014-Jun-08 10:33N 37°46' W 122°21'0 0.0
2014-Jun-08 09:33N 37°46' W 122°21'0 0.0
2014-Jun-08 08:33N 37°46' W 122°21'0 0.0
2014-Jun-08 07:33N 37°46' W 122°21'0 0.0
2014-Jun-08 06:33N 37°46' W 122°21'0 0.0
2014-Jun-08 05:33N 37°46' W 122°21'0 0.1
2014-Jun-08 04:33N 37°46' W 122°21'0 0.1
2014-Jun-08 03:33N 37°46' W 122°21'0 0.1
2014-Jun-08 02:33N 37°46' W 122°21'2 1.8
2014-Jun-08 01:33N 37°47' W 122°23'1110.9
2014-Jun-08 00:33N 37°46' W 122°36'5 4.5
2014-Jun-07 23:33N 37°48' W 122°41'1 1.1
2014-Jun-07 22:33N 37°47' W 122°41'7 7.0
2014-Jun-07 21:33N 37°40' W 122°39'8 7.6
2014-Jun-07 20:33N 37°33' W 122°40'6 6.0
2014-Jun-07 19:33N 37°27' W 122°40'10 9.9
2014-Jun-07 18:33N 37°17' W 122°40'11 9.5
2014-Jun-07 17:20N 37°05' W 122°40'810.3
2014-Jun-07 16:33N 36°57' W 122°40'1111.1
2014-Jun-07 15:33N 36°46' W 122°40'3612.0
2014-Jun-07 12:33N 36°10' W 122°40'1511.1
2014-Jun-07 11:10N 35°55' W 122°40'1910.6
2014-Jun-07 09:23N 35°36' W 122°40'1111.1
2014-Jun-07 08:24N 35°25' W 122°40'1011.0
2014-Jun-07 07:29N 35°15' W 122°40'9 6.5
2014-Jun-07 06:05N 35°06' W 122°40'2 3.1
2014-Jun-07 05:33N 35°04' W 122°40'1110.6
2014-Jun-07 04:33N 34°53' W 122°40'5310.3
2014-Jun-06 23:24N 34°00' W 122°40'1010.1
2014-Jun-06 22:23N 33°50' W 122°40'  

Dump ship's entire track history